Hauptseite
METAR-TAF:

METAR-TAF

Flughäfen :

Albert, Frankreich

Flughafen Albert-Picardie

Breite: 49-58-21N, Länge: 002-41-29E, Höhe: 111 m

METAR: fehlend

Zeit: 20:19 (19:19 UTC)

Prognose

Neuester Wetterbericht von vor 5 Stunden und 19 Minuten, um 14:00 UTC
Gültige Prognose vom 25 um 15 UTC bis 25 um 24 UTC
Wind 16 kt aus Ost/Nordost
Sichtweite 10 km oder mehr
keine Wolken unter 1500 m und keine Kumulonimbus oder Gewitterwolken

TAF: LFAQ 251400Z 2515/2524 06016KT CAVOK

Wetterbeobachtungen und Prognosen von mehr als 4000 Flughäfen (METAR und TAF Bericht).

Die verfügbaren Stationen werden durch gelbe und rote Markierungen auf der Karte dargestellt.

Führen Sie die Maus auf sie, um den Namen der Station zu sehen.

Darauf klicken, um die Beobachtung von Wetterbeobachtungen und Prognosen zu sehen.

Um die Karte zu ändern : klicken Sie auf den grünen Tasten mit einem schwarzen Kreuz Zum Vergrößern, auf den grünen Button mit einem Gedankenstrich zu verkleinern, oder auf die grünen Pfeile für benachbarte Karten.


METAR-TAF: